sensor_id;sensor_type;location;lat;lon;timestamp;temperature;humidity
8856;DHT22;4464;50.882;4.730;2024-03-02T00:01:28;6.80;99.90
8856;DHT22;4464;50.882;4.730;2024-03-02T00:03:54;6.80;99.90
8856;DHT22;4464;50.882;4.730;2024-03-02T00:06:20;6.80;99.90
8856;DHT22;4464;50.882;4.730;2024-03-02T00:08:49;6.80;99.90
8856;DHT22;4464;50.882;4.730;2024-03-02T00:11:20;6.80;99.90
8856;DHT22;4464;50.882;4.730;2024-03-02T00:13:48;6.80;99.90
8856;DHT22;4464;50.882;4.730;2024-03-02T00:16:14;6.80;99.90
8856;DHT22;4464;50.882;4.730;2024-03-02T00:18:41;6.80;99.90
8856;DHT22;4464;50.882;4.730;2024-03-02T00:21:08;6.80;99.90
8856;DHT22;4464;50.882;4.730;2024-03-02T00:23:35;6.80;99.90
8856;DHT22;4464;50.882;4.730;2024-03-02T00:26:06;6.80;99.90
8856;DHT22;4464;50.882;4.730;2024-03-02T00:28:36;6.80;99.90
8856;DHT22;4464;50.882;4.730;2024-03-02T00:31:11;6.80;99.90
8856;DHT22;4464;50.882;4.730;2024-03-02T00:33:45;6.70;99.90
8856;DHT22;4464;50.882;4.730;2024-03-02T00:36:22;6.70;99.90
8856;DHT22;4464;50.882;4.730;2024-03-02T00:38:51;6.70;99.90
8856;DHT22;4464;50.882;4.730;2024-03-02T00:44:01;6.70;99.90
8856;DHT22;4464;50.882;4.730;2024-03-02T00:46:39;6.70;99.90
8856;DHT22;4464;50.882;4.730;2024-03-02T00:49:23;6.70;99.90
8856;DHT22;4464;50.882;4.730;2024-03-02T00:51:53;6.70;99.90
8856;DHT22;4464;50.882;4.730;2024-03-02T00:54:23;6.70;99.90
8856;DHT22;4464;50.882;4.730;2024-03-02T00:56:49;6.70;99.90
8856;DHT22;4464;50.882;4.730;2024-03-02T00:59:17;6.60;99.90
8856;DHT22;4464;50.882;4.730;2024-03-02T01:01:45;6.70;99.90
8856;DHT22;4464;50.882;4.730;2024-03-02T01:04:11;6.70;99.90
8856;DHT22;4464;50.882;4.730;2024-03-02T01:06:39;6.70;99.90
8856;DHT22;4464;50.882;4.730;2024-03-02T01:09:05;6.60;99.90
8856;DHT22;4464;50.882;4.730;2024-03-02T01:11:33;6.70;99.90
8856;DHT22;4464;50.882;4.730;2024-03-02T01:13:59;6.70;99.90
8856;DHT22;4464;50.882;4.730;2024-03-02T01:16:27;6.70;99.90
8856;DHT22;4464;50.882;4.730;2024-03-02T01:18:53;6.70;99.90
8856;DHT22;4464;50.882;4.730;2024-03-02T01:21:19;6.70;99.90
8856;DHT22;4464;50.882;4.730;2024-03-02T01:23:45;6.70;99.90
8856;DHT22;4464;50.882;4.730;2024-03-02T01:26:10;6.70;99.90
8856;DHT22;4464;50.882;4.730;2024-03-02T01:28:38;6.70;99.90
8856;DHT22;4464;50.882;4.730;2024-03-02T01:31:04;6.60;99.90
8856;DHT22;4464;50.882;4.730;2024-03-02T01:33:30;6.60;99.90
8856;DHT22;4464;50.882;4.730;2024-03-02T01:35:56;6.60;99.90
8856;DHT22;4464;50.882;4.730;2024-03-02T01:38:22;6.60;99.90
8856;DHT22;4464;50.882;4.730;2024-03-02T01:40:48;6.60;99.90
8856;DHT22;4464;50.882;4.730;2024-03-02T01:43:13;6.60;99.90
8856;DHT22;4464;50.882;4.730;2024-03-02T01:45:45;6.60;99.90
8856;DHT22;4464;50.882;4.730;2024-03-02T01:48:13;6.60;99.90
8856;DHT22;4464;50.882;4.730;2024-03-02T01:50:39;6.60;99.90
8856;DHT22;4464;50.882;4.730;2024-03-02T01:53:05;6.60;99.90
8856;DHT22;4464;50.882;4.730;2024-03-02T01:55:33;6.60;99.90
8856;DHT22;4464;50.882;4.730;2024-03-02T01:58:02;6.60;99.90
8856;DHT22;4464;50.882;4.730;2024-03-02T02:00:34;6.60;99.90
8856;DHT22;4464;50.882;4.730;2024-03-02T02:03:01;6.60;99.90
8856;DHT22;4464;50.882;4.730;2024-03-02T02:05:27;6.60;99.90
8856;DHT22;4464;50.882;4.730;2024-03-02T02:07:52;6.60;99.90
8856;DHT22;4464;50.882;4.730;2024-03-02T02:10:18;6.60;99.90
8856;DHT22;4464;50.882;4.730;2024-03-02T02:12:44;6.70;99.90
8856;DHT22;4464;50.882;4.730;2024-03-02T02:15:29;6.70;99.90
8856;DHT22;4464;50.882;4.730;2024-03-02T02:17:56;6.70;99.90
8856;DHT22;4464;50.882;4.730;2024-03-02T02:20:23;6.70;99.90
8856;DHT22;4464;50.882;4.730;2024-03-02T02:25:21;6.80;99.90
8856;DHT22;4464;50.882;4.730;2024-03-02T02:27:47;6.80;99.90
8856;DHT22;4464;50.882;4.730;2024-03-02T02:30:15;6.80;99.90
8856;DHT22;4464;50.882;4.730;2024-03-02T02:32:43;6.90;99.90
8856;DHT22;4464;50.882;4.730;2024-03-02T02:35:09;6.90;99.90
8856;DHT22;4464;50.882;4.730;2024-03-02T02:37:35;6.90;99.90
8856;DHT22;4464;50.882;4.730;2024-03-02T02:40:01;7.00;99.90
8856;DHT22;4464;50.882;4.730;2024-03-02T02:42:27;6.90;99.90
8856;DHT22;4464;50.882;4.730;2024-03-02T02:44:55;6.90;99.90
8856;DHT22;4464;50.882;4.730;2024-03-02T02:47:21;6.80;99.90
8856;DHT22;4464;50.882;4.730;2024-03-02T02:49:46;6.80;99.90
8856;DHT22;4464;50.882;4.730;2024-03-02T02:52:14;6.70;99.90
8856;DHT22;4464;50.882;4.730;2024-03-02T02:54:40;6.70;99.90
8856;DHT22;4464;50.882;4.730;2024-03-02T02:57:06;6.70;99.90
8856;DHT22;4464;50.882;4.730;2024-03-02T02:59:32;6.60;99.90
8856;DHT22;4464;50.882;4.730;2024-03-02T03:01:57;6.50;99.90
8856;DHT22;4464;50.882;4.730;2024-03-02T03:04:23;6.40;99.90
8856;DHT22;4464;50.882;4.730;2024-03-02T03:06:49;6.40;99.90
8856;DHT22;4464;50.882;4.730;2024-03-02T03:09:15;6.40;99.90
8856;DHT22;4464;50.882;4.730;2024-03-02T03:11:43;6.30;99.90
8856;DHT22;4464;50.882;4.730;2024-03-02T03:14:09;6.40;99.90
8856;DHT22;4464;50.882;4.730;2024-03-02T03:16:35;6.40;99.90
8856;DHT22;4464;50.882;4.730;2024-03-02T03:19:01;6.30;99.90
8856;DHT22;4464;50.882;4.730;2024-03-02T03:21:27;6.30;99.90
8856;DHT22;4464;50.882;4.730;2024-03-02T03:23:56;6.30;99.90
8856;DHT22;4464;50.882;4.730;2024-03-02T03:26:24;6.30;99.90
8856;DHT22;4464;50.882;4.730;2024-03-02T03:28:49;6.30;99.90
8856;DHT22;4464;50.882;4.730;2024-03-02T03:31:15;6.20;99.90
8856;DHT22;4464;50.882;4.730;2024-03-02T03:33:43;6.20;99.90
8856;DHT22;4464;50.882;4.730;2024-03-02T03:36:14;6.20;99.90
8856;DHT22;4464;50.882;4.730;2024-03-02T03:38:40;6.10;99.90
8856;DHT22;4464;50.882;4.730;2024-03-02T03:41:06;6.20;99.90
8856;DHT22;4464;50.882;4.730;2024-03-02T03:43:31;6.10;99.90
8856;DHT22;4464;50.882;4.730;2024-03-02T03:45:57;6.10;99.90
8856;DHT22;4464;50.882;4.730;2024-03-02T03:48:23;6.10;99.90
8856;DHT22;4464;50.882;4.730;2024-03-02T03:50:50;6.10;99.90
8856;DHT22;4464;50.882;4.730;2024-03-02T03:53:20;6.10;99.90
8856;DHT22;4464;50.882;4.730;2024-03-02T03:55:48;6.10;99.90
8856;DHT22;4464;50.882;4.730;2024-03-02T03:58:19;6.10;99.90
8856;DHT22;4464;50.882;4.730;2024-03-02T04:00:46;6.10;99.90
8856;DHT22;4464;50.882;4.730;2024-03-02T04:03:12;6.00;99.90
8856;DHT22;4464;50.882;4.730;2024-03-02T04:05:40;6.00;99.90
8856;DHT22;4464;50.882;4.730;2024-03-02T04:08:06;6.00;99.90
8856;DHT22;4464;50.882;4.730;2024-03-02T04:10:32;6.10;99.90
8856;DHT22;4464;50.882;4.730;2024-03-02T04:12:59;6.00;99.90
8856;DHT22;4464;50.882;4.730;2024-03-02T04:15:25;5.90;99.90
8856;DHT22;4464;50.882;4.730;2024-03-02T04:17:55;5.90;99.90
8856;DHT22;4464;50.882;4.730;2024-03-02T04:20:24;5.70;99.90
8856;DHT22;4464;50.882;4.730;2024-03-02T04:22:50;5.70;99.90
8856;DHT22;4464;50.882;4.730;2024-03-02T04:25:16;5.70;99.90
8856;DHT22;4464;50.882;4.730;2024-03-02T04:27:44;5.70;99.90
8856;DHT22;4464;50.882;4.730;2024-03-02T04:30:10;5.60;99.90
8856;DHT22;4464;50.882;4.730;2024-03-02T04:32:36;5.60;99.90
8856;DHT22;4464;50.882;4.730;2024-03-02T04:35:02;5.60;99.90
8856;DHT22;4464;50.882;4.730;2024-03-02T04:37:27;5.60;99.90
8856;DHT22;4464;50.882;4.730;2024-03-02T04:39:53;5.60;99.90
8856;DHT22;4464;50.882;4.730;2024-03-02T04:42:19;5.60;99.90
8856;DHT22;4464;50.882;4.730;2024-03-02T04:44:48;5.50;99.90
8856;DHT22;4464;50.882;4.730;2024-03-02T04:47:14;5.50;99.90
8856;DHT22;4464;50.882;4.730;2024-03-02T04:49:39;5.50;99.90
8856;DHT22;4464;50.882;4.730;2024-03-02T04:52:05;5.50;99.90
8856;DHT22;4464;50.882;4.730;2024-03-02T04:54:33;5.50;99.90
8856;DHT22;4464;50.882;4.730;2024-03-02T04:57:19;5.40;99.90
8856;DHT22;4464;50.882;4.730;2024-03-02T04:59:45;5.50;99.90
8856;DHT22;4464;50.882;4.730;2024-03-02T05:02:15;5.60;99.90
8856;DHT22;4464;50.882;4.730;2024-03-02T05:04:45;5.60;99.90
8856;DHT22;4464;50.882;4.730;2024-03-02T05:07:13;5.60;99.90
8856;DHT22;4464;50.882;4.730;2024-03-02T05:09:43;5.60;99.90
8856;DHT22;4464;50.882;4.730;2024-03-02T05:12:10;5.60;99.90
8856;DHT22;4464;50.882;4.730;2024-03-02T05:14:56;5.60;99.90
8856;DHT22;4464;50.882;4.730;2024-03-02T05:17:24;5.60;99.90
8856;DHT22;4464;50.882;4.730;2024-03-02T05:19:50;5.60;99.90
8856;DHT22;4464;50.882;4.730;2024-03-02T05:22:16;5.60;99.90
8856;DHT22;4464;50.882;4.730;2024-03-02T05:24:42;5.60;99.90
8856;DHT22;4464;50.882;4.730;2024-03-02T05:27:08;5.60;99.90
8856;DHT22;4464;50.882;4.730;2024-03-02T05:29:33;5.60;99.90
8856;DHT22;4464;50.882;4.730;2024-03-02T05:32:07;5.60;99.90
8856;DHT22;4464;50.882;4.730;2024-03-02T05:34:33;5.60;99.90
8856;DHT22;4464;50.882;4.730;2024-03-02T05:37:01;5.70;99.90
8856;DHT22;4464;50.882;4.730;2024-03-02T05:39:30;5.70;99.90
8856;DHT22;4464;50.882;4.730;2024-03-02T05:41:56;5.70;99.90
8856;DHT22;4464;50.882;4.730;2024-03-02T05:44:21;5.60;99.90
8856;DHT22;4464;50.882;4.730;2024-03-02T05:46:48;5.60;99.90
8856;DHT22;4464;50.882;4.730;2024-03-02T05:49:13;5.60;99.90
8856;DHT22;4464;50.882;4.730;2024-03-02T05:51:42;5.70;99.90
8856;DHT22;4464;50.882;4.730;2024-03-02T05:54:10;5.70;99.90
8856;DHT22;4464;50.882;4.730;2024-03-02T05:56:36;5.70;99.90
8856;DHT22;4464;50.882;4.730;2024-03-02T05:59:01;5.60;99.90
8856;DHT22;4464;50.882;4.730;2024-03-02T06:01:40;5.70;99.90
8856;DHT22;4464;50.882;4.730;2024-03-02T06:04:12;5.60;99.90
8856;DHT22;4464;50.882;4.730;2024-03-02T06:06:38;5.70;99.90
8856;DHT22;4464;50.882;4.730;2024-03-02T06:09:05;5.70;99.90
8856;DHT22;4464;50.882;4.730;2024-03-02T06:11:36;5.70;99.90
8856;DHT22;4464;50.882;4.730;2024-03-02T06:14:08;5.70;99.90
8856;DHT22;4464;50.882;4.730;2024-03-02T06:16:34;5.70;99.90
8856;DHT22;4464;50.882;4.730;2024-03-02T06:19:01;5.70;99.90
8856;DHT22;4464;50.882;4.730;2024-03-02T06:21:27;5.70;99.90
8856;DHT22;4464;50.882;4.730;2024-03-02T06:23:54;5.80;99.90
8856;DHT22;4464;50.882;4.730;2024-03-02T06:26:20;5.80;99.90
8856;DHT22;4464;50.882;4.730;2024-03-02T06:28:45;5.80;99.90
8856;DHT22;4464;50.882;4.730;2024-03-02T06:31:12;5.70;99.90
8856;DHT22;4464;50.882;4.730;2024-03-02T06:33:38;5.70;99.90
8856;DHT22;4464;50.882;4.730;2024-03-02T06:36:04;5.70;99.90
8856;DHT22;4464;50.882;4.730;2024-03-02T06:38:30;5.80;99.90
8856;DHT22;4464;50.882;4.730;2024-03-02T06:40:58;5.80;99.90
8856;DHT22;4464;50.882;4.730;2024-03-02T06:43:26;5.80;99.90
8856;DHT22;4464;50.882;4.730;2024-03-02T06:45:55;5.80;99.90
8856;DHT22;4464;50.882;4.730;2024-03-02T06:48:21;5.90;99.90
8856;DHT22;4464;50.882;4.730;2024-03-02T06:50:50;5.80;99.90
8856;DHT22;4464;50.882;4.730;2024-03-02T06:53:17;5.80;99.90
8856;DHT22;4464;50.882;4.730;2024-03-02T06:55:48;5.80;99.90
8856;DHT22;4464;50.882;4.730;2024-03-02T06:58:14;5.60;99.90
8856;DHT22;4464;50.882;4.730;2024-03-02T07:00:43;5.60;99.90
8856;DHT22;4464;50.882;4.730;2024-03-02T07:03:13;5.60;99.90
8856;DHT22;4464;50.882;4.730;2024-03-02T07:05:39;5.50;99.90
8856;DHT22;4464;50.882;4.730;2024-03-02T07:08:05;5.60;99.90
8856;DHT22;4464;50.882;4.730;2024-03-02T07:10:31;5.50;99.90
8856;DHT22;4464;50.882;4.730;2024-03-02T07:12:59;5.50;99.90
8856;DHT22;4464;50.882;4.730;2024-03-02T07:15:25;5.50;99.90
8856;DHT22;4464;50.882;4.730;2024-03-02T07:17:56;5.60;99.90
8856;DHT22;4464;50.882;4.730;2024-03-02T07:20:22;5.60;99.90
8856;DHT22;4464;50.882;4.730;2024-03-02T07:22:48;5.60;99.90
8856;DHT22;4464;50.882;4.730;2024-03-02T07:25:16;5.70;99.90
8856;DHT22;4464;50.882;4.730;2024-03-02T07:27:42;5.80;99.90
8856;DHT22;4464;50.882;4.730;2024-03-02T07:30:09;5.80;99.90
8856;DHT22;4464;50.882;4.730;2024-03-02T07:32:36;5.90;99.90
8856;DHT22;4464;50.882;4.730;2024-03-02T07:35:02;5.90;99.90
8856;DHT22;4464;50.882;4.730;2024-03-02T07:37:29;5.90;99.90
8856;DHT22;4464;50.882;4.730;2024-03-02T07:39:55;6.00;99.90
8856;DHT22;4464;50.882;4.730;2024-03-02T07:42:21;6.00;99.90
8856;DHT22;4464;50.882;4.730;2024-03-02T07:44:46;6.10;99.90
8856;DHT22;4464;50.882;4.730;2024-03-02T07:47:12;6.20;99.90
8856;DHT22;4464;50.882;4.730;2024-03-02T07:49:41;6.30;99.90
8856;DHT22;4464;50.882;4.730;2024-03-02T07:52:11;6.40;99.90
8856;DHT22;4464;50.882;4.730;2024-03-02T07:54:39;6.70;99.90
8856;DHT22;4464;50.882;4.730;2024-03-02T07:57:07;7.10;99.90
8856;DHT22;4464;50.882;4.730;2024-03-02T07:59:36;7.30;99.90
8856;DHT22;4464;50.882;4.730;2024-03-02T08:02:03;7.70;99.90
8856;DHT22;4464;50.882;4.730;2024-03-02T08:04:29;8.30;99.90
8856;DHT22;4464;50.882;4.730;2024-03-02T08:06:57;8.80;99.90
8856;DHT22;4464;50.882;4.730;2024-03-02T08:09:23;9.30;99.90
8856;DHT22;4464;50.882;4.730;2024-03-02T08:11:49;9.90;99.90
8856;DHT22;4464;50.882;4.730;2024-03-02T08:14:15;10.30;99.90
8856;DHT22;4464;50.882;4.730;2024-03-02T08:16:41;10.90;99.90
8856;DHT22;4464;50.882;4.730;2024-03-02T08:19:07;11.30;99.90
8856;DHT22;4464;50.882;4.730;2024-03-02T08:21:34;11.50;99.90
8856;DHT22;4464;50.882;4.730;2024-03-02T08:24:02;11.90;99.90
8856;DHT22;4464;50.882;4.730;2024-03-02T08:26:28;12.20;99.90
8856;DHT22;4464;50.882;4.730;2024-03-02T08:28:55;12.70;99.90
8856;DHT22;4464;50.882;4.730;2024-03-02T08:31:21;12.90;99.90
8856;DHT22;4464;50.882;4.730;2024-03-02T08:33:47;12.80;99.90
8856;DHT22;4464;50.882;4.730;2024-03-02T08:36:13;12.90;99.90
8856;DHT22;4464;50.882;4.730;2024-03-02T08:38:38;13.00;99.90
8856;DHT22;4464;50.882;4.730;2024-03-02T08:41:04;13.10;99.90
8856;DHT22;4464;50.882;4.730;2024-03-02T08:43:33;12.80;99.90
8856;DHT22;4464;50.882;4.730;2024-03-02T08:46:02;12.60;99.90
8856;DHT22;4464;50.882;4.730;2024-03-02T08:48:28;12.90;99.90
8856;DHT22;4464;50.882;4.730;2024-03-02T08:50:54;13.20;99.90
8856;DHT22;4464;50.882;4.730;2024-03-02T08:53:20;13.60;99.90
8856;DHT22;4464;50.882;4.730;2024-03-02T08:55:46;13.70;99.90
8856;DHT22;4464;50.882;4.730;2024-03-02T08:58:13;13.60;99.90
8856;DHT22;4464;50.882;4.730;2024-03-02T09:00:39;13.80;99.90
8856;DHT22;4464;50.882;4.730;2024-03-02T09:03:05;14.00;99.90
8856;DHT22;4464;50.882;4.730;2024-03-02T09:05:31;14.40;99.90
8856;DHT22;4464;50.882;4.730;2024-03-02T09:07:57;14.20;99.90
8856;DHT22;4464;50.882;4.730;2024-03-02T09:10:22;13.90;99.90
8856;DHT22;4464;50.882;4.730;2024-03-02T09:12:48;14.00;99.90
8856;DHT22;4464;50.882;4.730;2024-03-02T09:15:14;14.10;99.90
8856;DHT22;4464;50.882;4.730;2024-03-02T09:17:40;14.30;99.90
8856;DHT22;4464;50.882;4.730;2024-03-02T09:20:06;14.50;99.90
8856;DHT22;4464;50.882;4.730;2024-03-02T09:22:33;14.90;99.90
8856;DHT22;4464;50.882;4.730;2024-03-02T09:24:59;15.60;99.90
8856;DHT22;4464;50.882;4.730;2024-03-02T09:27:27;15.40;99.10
8856;DHT22;4464;50.882;4.730;2024-03-02T09:29:53;15.10;99.10
8856;DHT22;4464;50.882;4.730;2024-03-02T09:32:21;14.70;99.20
8856;DHT22;4464;50.882;4.730;2024-03-02T09:34:49;14.70;99.30
8856;DHT22;4464;50.882;4.730;2024-03-02T09:37:15;14.60;99.20
8856;DHT22;4464;50.882;4.730;2024-03-02T09:39:43;14.10;99.60
8856;DHT22;4464;50.882;4.730;2024-03-02T09:42:12;13.30;99.90
8856;DHT22;4464;50.882;4.730;2024-03-02T09:44:39;12.80;99.90
8856;DHT22;4464;50.882;4.730;2024-03-02T09:47:06;12.90;99.90
8856;DHT22;4464;50.882;4.730;2024-03-02T09:49:32;12.70;99.90
8856;DHT22;4464;50.882;4.730;2024-03-02T09:52:01;13.80;99.90
8856;DHT22;4464;50.882;4.730;2024-03-02T09:54:30;14.80;99.90
8856;DHT22;4464;50.882;4.730;2024-03-02T09:56:56;15.50;98.90
8856;DHT22;4464;50.882;4.730;2024-03-02T09:59:21;15.70;99.00
8856;DHT22;4464;50.882;4.730;2024-03-02T10:02:03;15.50;99.10
8856;DHT22;4464;50.882;4.730;2024-03-02T10:04:30;16.00;99.10
8856;DHT22;4464;50.882;4.730;2024-03-02T10:07:14;16.00;97.80
8856;DHT22;4464;50.882;4.730;2024-03-02T10:09:41;16.50;97.50
8856;DHT22;4464;50.882;4.730;2024-03-02T10:12:09;16.50;97.60
8856;DHT22;4464;50.882;4.730;2024-03-02T10:14:35;16.80;96.70
8856;DHT22;4464;50.882;4.730;2024-03-02T10:17:12;16.70;96.60
8856;DHT22;4464;50.882;4.730;2024-03-02T10:19:41;17.00;96.40
8856;DHT22;4464;50.882;4.730;2024-03-02T10:22:10;17.00;96.60
8856;DHT22;4464;50.882;4.730;2024-03-02T10:24:43;17.00;95.90
8856;DHT22;4464;50.882;4.730;2024-03-02T10:27:18;17.20;96.10
8856;DHT22;4464;50.882;4.730;2024-03-02T10:29:48;17.20;95.90
8856;DHT22;4464;50.882;4.730;2024-03-02T10:32:15;17.70;96.10
8856;DHT22;4464;50.882;4.730;2024-03-02T10:34:45;17.70;95.00
8856;DHT22;4464;50.882;4.730;2024-03-02T10:37:17;17.40;94.70
8856;DHT22;4464;50.882;4.730;2024-03-02T10:39:43;17.30;95.50
8856;DHT22;4464;50.882;4.730;2024-03-02T10:42:12;17.70;95.10
8856;DHT22;4464;50.882;4.730;2024-03-02T10:44:40;17.60;94.20
8856;DHT22;4464;50.882;4.730;2024-03-02T10:47:06;17.10;95.10
8856;DHT22;4464;50.882;4.730;2024-03-02T10:49:34;17.60;95.30
8856;DHT22;4464;50.882;4.730;2024-03-02T10:52:00;18.30;95.00
8856;DHT22;4464;50.882;4.730;2024-03-02T10:54:26;18.50;94.50
8856;DHT22;4464;50.882;4.730;2024-03-02T10:56:57;18.20;94.30
8856;DHT22;4464;50.882;4.730;2024-03-02T10:59:37;18.20;94.20
8856;DHT22;4464;50.882;4.730;2024-03-02T11:02:05;18.80;94.30
8856;DHT22;4464;50.882;4.730;2024-03-02T11:04:34;19.10;93.60
8856;DHT22;4464;50.882;4.730;2024-03-02T11:07:06;19.40;93.00
8856;DHT22;4464;50.882;4.730;2024-03-02T11:09:38;18.60;93.10
8856;DHT22;4464;50.882;4.730;2024-03-02T11:12:09;17.40;94.00
8856;DHT22;4464;50.882;4.730;2024-03-02T11:14:41;16.40;94.90
8856;DHT22;4464;50.882;4.730;2024-03-02T11:17:15;16.10;95.70
8856;DHT22;4464;50.882;4.730;2024-03-02T11:19:42;16.50;95.80
8856;DHT22;4464;50.882;4.730;2024-03-02T11:22:09;17.00;95.00
8856;DHT22;4464;50.882;4.730;2024-03-02T11:24:37;17.50;94.70
8856;DHT22;4464;50.882;4.730;2024-03-02T11:27:07;18.20;94.10
8856;DHT22;4464;50.882;4.730;2024-03-02T11:32:25;19.70;92.90
8856;DHT22;4464;50.882;4.730;2024-03-02T11:34:51;21.00;91.90
8856;DHT22;4464;50.882;4.730;2024-03-02T11:37:20;20.20;90.10
8856;DHT22;4464;50.882;4.730;2024-03-02T11:39:49;18.90;91.00
8856;DHT22;4464;50.882;4.730;2024-03-02T11:42:15;19.30;92.30
8856;DHT22;4464;50.882;4.730;2024-03-02T11:44:45;19.70;91.50
8856;DHT22;4464;50.882;4.730;2024-03-02T11:47:13;20.20;91.50
8856;DHT22;4464;50.882;4.730;2024-03-02T11:49:45;20.40;90.80
8856;DHT22;4464;50.882;4.730;2024-03-02T11:52:15;20.60;91.00
8856;DHT22;4464;50.882;4.730;2024-03-02T11:54:44;19.70;91.00
8856;DHT22;4464;50.882;4.730;2024-03-02T11:57:21;19.40;91.30
8856;DHT22;4464;50.882;4.730;2024-03-02T11:59:50;19.40;92.00
8856;DHT22;4464;50.882;4.730;2024-03-02T12:02:21;19.30;91.70
8856;DHT22;4464;50.882;4.730;2024-03-02T12:04:48;19.40;91.80
8856;DHT22;4464;50.882;4.730;2024-03-02T12:07:21;19.50;91.70
8856;DHT22;4464;50.882;4.730;2024-03-02T12:10:00;19.90;91.60
8856;DHT22;4464;50.882;4.730;2024-03-02T12:12:27;20.30;91.10
8856;DHT22;4464;50.882;4.730;2024-03-02T12:14:53;20.40;90.10
8856;DHT22;4464;50.882;4.730;2024-03-02T12:17:22;20.30;90.60
8856;DHT22;4464;50.882;4.730;2024-03-02T12:19:48;19.80;90.20
8856;DHT22;4464;50.882;4.730;2024-03-02T12:22:16;19.20;90.70
8856;DHT22;4464;50.882;4.730;2024-03-02T12:24:45;19.20;90.40
8856;DHT22;4464;50.882;4.730;2024-03-02T12:27:15;18.20;91.50
8856;DHT22;4464;50.882;4.730;2024-03-02T12:29:41;17.30;92.00
8856;DHT22;4464;50.882;4.730;2024-03-02T12:32:08;16.60;93.00
8856;DHT22;4464;50.882;4.730;2024-03-02T12:34:34;16.30;93.20
8856;DHT22;4464;50.882;4.730;2024-03-02T12:37:00;16.20;94.40
8856;DHT22;4464;50.882;4.730;2024-03-02T12:39:26;16.20;93.30
8856;DHT22;4464;50.882;4.730;2024-03-02T12:41:55;16.50;93.80
8856;DHT22;4464;50.882;4.730;2024-03-02T12:44:21;16.90;93.70
8856;DHT22;4464;50.882;4.730;2024-03-02T12:46:47;16.70;93.40
8856;DHT22;4464;50.882;4.730;2024-03-02T12:49:14;16.40;93.10
8856;DHT22;4464;50.882;4.730;2024-03-02T12:51:46;16.20;94.10
8856;DHT22;4464;50.882;4.730;2024-03-02T12:54:17;15.80;94.10
8856;DHT22;4464;50.882;4.730;2024-03-02T12:56:45;15.30;94.40
8856;DHT22;4464;50.882;4.730;2024-03-02T12:59:20;14.80;95.00
8856;DHT22;4464;50.882;4.730;2024-03-02T13:01:54;14.60;95.70
8856;DHT22;4464;50.882;4.730;2024-03-02T13:04:24;14.60;95.70
8856;DHT22;4464;50.882;4.730;2024-03-02T13:06:50;14.70;95.90
8856;DHT22;4464;50.882;4.730;2024-03-02T13:09:17;14.80;95.50
8856;DHT22;4464;50.882;4.730;2024-03-02T13:11:43;14.90;95.80
8856;DHT22;4464;50.882;4.730;2024-03-02T13:14:10;15.40;95.90
8856;DHT22;4464;50.882;4.730;2024-03-02T13:16:40;17.00;95.00
8856;DHT22;4464;50.882;4.730;2024-03-02T13:19:11;18.80;93.80
8856;DHT22;4464;50.882;4.730;2024-03-02T13:21:40;19.90;92.20
8856;DHT22;4464;50.882;4.730;2024-03-02T13:24:06;20.50;91.90
8856;DHT22;4464;50.882;4.730;2024-03-02T13:26:32;21.30;91.30
8856;DHT22;4464;50.882;4.730;2024-03-02T13:29:00;20.60;90.00
8856;DHT22;4464;50.882;4.730;2024-03-02T13:31:26;19.10;91.20
8856;DHT22;4464;50.882;4.730;2024-03-02T13:33:54;18.20;92.10
8856;DHT22;4464;50.882;4.730;2024-03-02T13:36:22;19.00;92.20
8856;DHT22;4464;50.882;4.730;2024-03-02T13:38:47;20.10;91.10
8856;DHT22;4464;50.882;4.730;2024-03-02T13:41:13;19.40;90.60
8856;DHT22;4464;50.882;4.730;2024-03-02T13:43:39;18.20;91.30
8856;DHT22;4464;50.882;4.730;2024-03-02T13:46:07;18.00;92.70
8856;DHT22;4464;50.882;4.730;2024-03-02T13:48:33;18.30;92.00
8856;DHT22;4464;50.882;4.730;2024-03-02T13:51:02;18.00;92.10
8856;DHT22;4464;50.882;4.730;2024-03-02T13:53:27;17.60;92.90
8856;DHT22;4464;50.882;4.730;2024-03-02T13:55:56;18.20;92.30
8856;DHT22;4464;50.882;4.730;2024-03-02T13:58:22;19.20;91.40
8856;DHT22;4464;50.882;4.730;2024-03-02T14:00:48;18.70;91.20
8856;DHT22;4464;50.882;4.730;2024-03-02T14:03:15;17.70;92.10
8856;DHT22;4464;50.882;4.730;2024-03-02T14:05:41;16.80;92.80
8856;DHT22;4464;50.882;4.730;2024-03-02T14:08:08;15.90;93.60
8856;DHT22;4464;50.882;4.730;2024-03-02T14:10:34;15.50;94.60
8856;DHT22;4464;50.882;4.730;2024-03-02T14:13:01;15.10;94.90
8856;DHT22;4464;50.882;4.730;2024-03-02T14:15:26;15.00;95.60
8856;DHT22;4464;50.882;4.730;2024-03-02T14:17:54;15.10;95.80
8856;DHT22;4464;50.882;4.730;2024-03-02T14:20:20;15.10;96.00
8856;DHT22;4464;50.882;4.730;2024-03-02T14:22:50;14.90;95.70
8856;DHT22;4464;50.882;4.730;2024-03-02T14:25:16;14.90;96.50
8856;DHT22;4464;50.882;4.730;2024-03-02T14:27:44;15.00;96.30
8856;DHT22;4464;50.882;4.730;2024-03-02T14:30:11;15.10;96.20
8856;DHT22;4464;50.882;4.730;2024-03-02T14:32:39;15.10;95.90
8856;DHT22;4464;50.882;4.730;2024-03-02T14:35:08;14.90;96.00
8856;DHT22;4464;50.882;4.730;2024-03-02T14:37:36;14.60;96.40
8856;DHT22;4464;50.882;4.730;2024-03-02T14:40:02;14.50;96.50
8856;DHT22;4464;50.882;4.730;2024-03-02T14:42:32;14.40;97.30
8856;DHT22;4464;50.882;4.730;2024-03-02T14:44:58;14.50;96.60
8856;DHT22;4464;50.882;4.730;2024-03-02T14:47:26;14.40;97.00
8856;DHT22;4464;50.882;4.730;2024-03-02T14:49:54;14.40;96.90
8856;DHT22;4464;50.882;4.730;2024-03-02T14:52:20;14.40;96.90
8856;DHT22;4464;50.882;4.730;2024-03-02T14:54:48;14.40;96.90
8856;DHT22;4464;50.882;4.730;2024-03-02T14:57:14;14.40;96.50
8856;DHT22;4464;50.882;4.730;2024-03-02T14:59:40;14.40;96.60
8856;DHT22;4464;50.882;4.730;2024-03-02T15:02:09;14.40;96.80
8856;DHT22;4464;50.882;4.730;2024-03-02T15:04:35;14.30;96.60
8856;DHT22;4464;50.882;4.730;2024-03-02T15:07:01;14.20;96.90
8856;DHT22;4464;50.882;4.730;2024-03-02T15:09:26;14.10;97.10
8856;DHT22;4464;50.882;4.730;2024-03-02T15:11:55;14.10;97.20
8856;DHT22;4464;50.882;4.730;2024-03-02T15:14:23;14.00;97.10
8856;DHT22;4464;50.882;4.730;2024-03-02T15:16:51;14.00;97.30
8856;DHT22;4464;50.882;4.730;2024-03-02T15:19:19;13.90;97.50
8856;DHT22;4464;50.882;4.730;2024-03-02T15:21:45;13.90;97.60
8856;DHT22;4464;50.882;4.730;2024-03-02T15:24:13;13.80;97.70
8856;DHT22;4464;50.882;4.730;2024-03-02T15:26:39;13.70;98.00
8856;DHT22;4464;50.882;4.730;2024-03-02T15:29:05;13.70;98.30
8856;DHT22;4464;50.882;4.730;2024-03-02T15:31:31;13.70;98.40
8856;DHT22;4464;50.882;4.730;2024-03-02T15:33:56;13.70;98.60
8856;DHT22;4464;50.882;4.730;2024-03-02T15:36:24;13.70;98.20
8856;DHT22;4464;50.882;4.730;2024-03-02T15:38:52;13.80;98.30
8856;DHT22;4464;50.882;4.730;2024-03-02T15:41:18;13.70;98.00
8856;DHT22;4464;50.882;4.730;2024-03-02T15:43:43;13.70;98.20
8856;DHT22;4464;50.882;4.730;2024-03-02T15:46:09;13.70;98.40
8856;DHT22;4464;50.882;4.730;2024-03-02T15:48:35;13.70;98.30
8856;DHT22;4464;50.882;4.730;2024-03-02T15:51:04;13.70;98.30
8856;DHT22;4464;50.882;4.730;2024-03-02T15:53:30;13.60;98.30
8856;DHT22;4464;50.882;4.730;2024-03-02T15:55:56;13.60;98.70
8856;DHT22;4464;50.882;4.730;2024-03-02T15:58:24;13.60;98.90
8856;DHT22;4464;50.882;4.730;2024-03-02T16:00:50;13.60;98.90
8856;DHT22;4464;50.882;4.730;2024-03-02T16:03:21;13.50;99.20
8856;DHT22;4464;50.882;4.730;2024-03-02T16:05:49;13.50;99.40
8856;DHT22;4464;50.882;4.730;2024-03-02T16:08:17;13.50;99.90
8856;DHT22;4464;50.882;4.730;2024-03-02T16:10:45;13.50;99.90
8856;DHT22;4464;50.882;4.730;2024-03-02T16:13:11;13.40;99.90
8856;DHT22;4464;50.882;4.730;2024-03-02T16:15:36;13.40;99.90
8856;DHT22;4464;50.882;4.730;2024-03-02T16:18:02;13.40;99.90
8856;DHT22;4464;50.882;4.730;2024-03-02T16:20:28;13.30;99.90